createdAt,value
2023-02-24T00:02:01.512Z,9.04
2023-02-24T00:04:31.085Z,9.05
2023-02-24T00:06:57.740Z,9.02
2023-02-24T00:09:26.378Z,9.02
2023-02-24T00:11:59.606Z,8.98
2023-02-24T00:14:35.267Z,8.95
2023-02-24T00:17:02.712Z,8.86
2023-02-24T00:19:32.787Z,8.79
2023-02-24T00:22:00.160Z,8.75
2023-02-24T00:24:27.309Z,8.84
2023-02-24T00:26:59.562Z,8.77
2023-02-24T00:29:28.265Z,8.83
2023-02-24T00:32:00.641Z,8.82
2023-02-24T00:34:28.907Z,8.87
2023-02-24T00:36:57.412Z,8.81
2023-02-24T00:39:35.786Z,8.74
2023-02-24T00:42:06.817Z,8.77
2023-02-24T00:44:39.523Z,8.79
2023-02-24T00:47:08.961Z,8.69
2023-02-24T00:49:36.348Z,8.78
2023-02-24T00:52:06.671Z,8.75
2023-02-24T00:54:36.543Z,8.77
2023-02-24T00:57:03.405Z,8.68
2023-02-24T00:59:30.227Z,8.62
2023-02-24T01:01:56.865Z,8.71
2023-02-24T01:04:23.491Z,8.73
2023-02-24T01:06:52.578Z,8.67
2023-02-24T01:09:21.048Z,8.63
2023-02-24T01:12:07.800Z,8.75
2023-02-24T01:14:35.648Z,8.75
2023-02-24T01:17:03.622Z,8.82
2023-02-24T01:19:32.041Z,8.76
2023-02-24T01:22:03.808Z,8.68
2023-02-24T01:24:38.124Z,8.69
2023-02-24T01:27:07.673Z,8.68
2023-02-24T01:29:39.569Z,8.54
2023-02-24T01:32:17.238Z,8.33
2023-02-24T01:34:44.720Z,8.38
2023-02-24T01:37:16.687Z,8.56
2023-02-24T01:39:47.214Z,8.47
2023-02-24T01:42:17.145Z,8.46
2023-02-24T01:44:43.791Z,8.52
2023-02-24T01:47:11.077Z,8.45
2023-02-24T01:49:43.734Z,8.34
2023-02-24T01:52:31.607Z,8.43
2023-02-24T01:55:29.177Z,8.47
2023-02-24T01:57:56.366Z,8.40
2023-02-24T02:00:38.322Z,8.38
2023-02-24T02:03:12.421Z,8.45
2023-02-24T02:05:40.448Z,8.42
2023-02-24T02:08:09.166Z,8.42
2023-02-24T02:10:40.784Z,8.31
2023-02-24T02:13:07.565Z,8.31
2023-02-24T02:15:44.262Z,8.35
2023-02-24T02:18:20.892Z,8.34
2023-02-24T02:20:59.809Z,8.21
2023-02-24T02:23:58.574Z,8.11
2023-02-24T02:26:54.048Z,8.20
2023-02-24T02:29:35.350Z,8.15
2023-02-24T02:32:17.360Z,8.21
2023-02-24T02:34:50.461Z,8.18
2023-02-24T02:37:37.470Z,8.17
2023-02-24T02:40:20.044Z,8.17
2023-02-24T02:42:47.600Z,8.25
2023-02-24T02:45:20.286Z,8.32
2023-02-24T02:48:15.394Z,8.27
2023-02-24T02:50:48.472Z,8.30
2023-02-24T02:53:19.978Z,8.23
2023-02-24T02:55:55.780Z,8.25
2023-02-24T02:58:26.620Z,8.29
2023-02-24T03:01:02.974Z,8.33
2023-02-24T03:03:34.182Z,8.23
2023-02-24T03:06:06.234Z,8.11
2023-02-24T03:08:37.315Z,8.13
2023-02-24T03:11:08.504Z,8.22
2023-02-24T03:13:38.044Z,8.27
2023-02-24T03:16:06.501Z,8.22
2023-02-24T03:18:39.581Z,8.15
2023-02-24T03:21:08.669Z,8.09
2023-02-24T03:23:47.725Z,8.04
2023-02-24T03:26:28.307Z,8.00
2023-02-24T03:28:55.670Z,7.88
2023-02-24T03:31:49.165Z,7.94
2023-02-24T03:34:19.875Z,7.95
2023-02-24T03:36:47.696Z,7.95
2023-02-24T03:39:15.999Z,7.99
2023-02-24T03:42:11.914Z,7.97
2023-02-24T03:44:39.088Z,7.95
2023-02-24T03:47:06.013Z,7.94
2023-02-24T03:49:32.971Z,7.94
2023-02-24T03:52:29.268Z,7.94
2023-02-24T03:55:09.375Z,8.01
2023-02-24T03:58:04.309Z,8.06
2023-02-24T04:00:46.689Z,8.04
2023-02-24T04:03:28.499Z,8.03
2023-02-24T04:06:38.707Z,7.98
2023-02-24T04:09:10.462Z,8.05
2023-02-24T04:12:17.204Z,8.00
2023-02-24T04:14:54.898Z,7.94
2023-02-24T04:17:35.392Z,7.96
2023-02-24T04:20:13.622Z,8.03
2023-02-24T04:22:49.056Z,8.02
2023-02-24T04:25:27.175Z,8.05
2023-02-24T04:27:58.563Z,7.95
2023-02-24T04:30:27.656Z,8.00
2023-02-24T04:32:54.397Z,8.00
2023-02-24T04:35:22.893Z,7.95
2023-02-24T04:37:50.906Z,7.94
2023-02-24T04:40:22.135Z,7.93
2023-02-24T04:42:50.491Z,7.96
2023-02-24T04:45:27.851Z,7.91
2023-02-24T04:48:00.991Z,7.86
2023-02-24T04:50:34.154Z,7.99
2023-02-24T04:53:10.010Z,7.91
2023-02-24T04:55:42.469Z,7.87
2023-02-24T04:58:13.645Z,7.89
2023-02-24T05:00:42.027Z,7.95
2023-02-24T05:03:11.686Z,7.95
2023-02-24T05:05:38.348Z,7.95
2023-02-24T05:08:06.949Z,7.83
2023-02-24T05:10:42.002Z,7.84
2023-02-24T05:13:11.169Z,7.93
2023-02-24T05:15:42.384Z,7.85
2023-02-24T05:18:14.092Z,7.86
2023-02-24T05:21:02.456Z,7.84
2023-02-24T05:23:39.399Z,7.88
2023-02-24T05:26:10.992Z,7.90
2023-02-24T05:28:40.838Z,7.87
2023-02-24T05:31:10.103Z,7.85
2023-02-24T05:33:43.794Z,7.94
2023-02-24T05:36:15.260Z,7.99
2023-02-24T05:38:41.919Z,8.02
2023-02-24T05:41:17.116Z,8.00
2023-02-24T05:43:53.057Z,7.94
2023-02-24T05:46:20.732Z,7.89
2023-02-24T05:48:51.219Z,7.79
2023-02-24T05:51:18.117Z,7.76
2023-02-24T05:53:44.771Z,7.75
2023-02-24T05:56:11.866Z,7.77
2023-02-24T05:58:39.363Z,7.57
2023-02-24T06:01:16.296Z,7.53
2023-02-24T06:03:46.794Z,7.54
2023-02-24T06:06:16.906Z,7.53
2023-02-24T06:08:50.087Z,7.54
2023-02-24T06:11:19.231Z,7.48
2023-02-24T06:13:50.113Z,7.34
2023-02-24T06:16:17.646Z,7.36
2023-02-24T06:18:47.798Z,7.25
2023-02-24T06:21:14.375Z,7.26
2023-02-24T06:23:41.519Z,7.19
2023-02-24T06:26:13.203Z,7.42
2023-02-24T06:28:43.241Z,7.46
2023-02-24T06:31:11.073Z,7.43
2023-02-24T06:33:41.906Z,7.39
2023-02-24T06:36:08.673Z,7.42
2023-02-24T06:38:37.085Z,7.37
2023-02-24T06:41:10.802Z,7.37
2023-02-24T06:43:43.402Z,7.30
2023-02-24T06:46:12.532Z,7.42
2023-02-24T06:48:39.402Z,7.46
2023-02-24T06:51:06.911Z,7.44
2023-02-24T06:53:43.119Z,7.41
2023-02-24T06:56:20.539Z,7.35
2023-02-24T06:58:52.246Z,7.47
2023-02-24T07:01:26.789Z,7.51
2023-02-24T07:04:08.087Z,7.50
2023-02-24T07:06:38.371Z,7.51
2023-02-24T07:09:08.168Z,7.47
2023-02-24T07:11:35.647Z,7.61
2023-02-24T07:14:05.873Z,7.71
2023-02-24T07:16:34.666Z,7.72
2023-02-24T07:19:11.322Z,7.73
2023-02-24T07:21:43.330Z,7.64
2023-02-24T07:24:13.483Z,7.69
2023-02-24T07:26:41.784Z,7.66
2023-02-24T07:29:11.517Z,7.51
2023-02-24T07:31:39.058Z,7.53
2023-02-24T07:34:06.464Z,7.44
2023-02-24T07:36:38.984Z,7.62
2023-02-24T07:39:09.680Z,7.58
2023-02-24T07:41:37.167Z,7.51
2023-02-24T07:44:03.881Z,7.70
2023-02-24T07:46:31.513Z,7.69
2023-02-24T07:49:01.661Z,7.74
2023-02-24T07:51:29.501Z,7.81
2023-02-24T07:53:59.153Z,7.77
2023-02-24T07:56:27.812Z,7.78
2023-02-24T07:58:59.312Z,7.78
2023-02-24T08:01:38.972Z,7.84
2023-02-24T08:04:08.247Z,7.90
2023-02-24T08:06:45.458Z,7.84
2023-02-24T08:09:20.540Z,7.78
2023-02-24T08:11:55.505Z,7.99
2023-02-24T08:14:24.657Z,7.98
2023-02-24T08:16:53.371Z,7.96
2023-02-24T08:19:21.108Z,7.99
2023-02-24T08:21:52.945Z,7.77
2023-02-24T08:24:25.343Z,7.53
2023-02-24T08:27:04.407Z,7.58
2023-02-24T08:29:40.194Z,7.84
2023-02-24T08:32:09.482Z,7.68
2023-02-24T08:34:37.201Z,7.70
2023-02-24T08:37:04.628Z,7.77
2023-02-24T08:39:34.184Z,7.92
2023-02-24T08:42:00.794Z,7.94
2023-02-24T08:44:27.660Z,8.05
2023-02-24T08:46:55.436Z,8.06
2023-02-24T08:49:24.976Z,8.00
2023-02-24T08:51:53.086Z,8.08
2023-02-24T08:54:27.423Z,8.18
2023-02-24T08:57:08.077Z,8.19
2023-02-24T08:59:41.095Z,8.44
2023-02-24T09:02:27.277Z,8.50
2023-02-24T09:05:12.465Z,8.56
2023-02-24T09:07:41.956Z,8.64
2023-02-24T09:10:17.790Z,8.69
2023-02-24T09:12:44.846Z,8.74
2023-02-24T09:15:15.510Z,8.85
2023-02-24T09:17:45.669Z,8.82
2023-02-24T09:20:25.996Z,8.70
2023-02-24T09:23:07.802Z,8.57
2023-02-24T09:25:49.639Z,8.57
2023-02-24T09:28:20.983Z,8.54
2023-02-24T09:30:54.042Z,8.30
2023-02-24T09:33:39.103Z,8.29
2023-02-24T09:36:13.187Z,8.32
2023-02-24T09:39:00.857Z,8.31
2023-02-24T09:41:54.529Z,8.33
2023-02-24T09:44:33.618Z,8.55
2023-02-24T09:47:09.886Z,8.75
2023-02-24T09:49:59.102Z,8.99
2023-02-24T09:52:43.406Z,9.13
2023-02-24T09:55:26.972Z,9.20
2023-02-24T09:58:29.317Z,9.48
2023-02-24T10:01:21.453Z,9.86
2023-02-24T10:03:51.977Z,10.03
2023-02-24T10:06:26.815Z,9.86
2023-02-24T10:09:11.828Z,9.85
2023-02-24T10:12:04.006Z,9.82
2023-02-24T10:15:00.071Z,10.03
2023-02-24T10:17:40.277Z,10.01
2023-02-24T10:20:28.689Z,9.71
2023-02-24T10:22:58.218Z,9.61
2023-02-24T10:25:42.898Z,9.64
2023-02-24T10:28:36.026Z,9.29
2023-02-24T10:31:25.709Z,9.14
2023-02-24T10:34:06.219Z,9.07
2023-02-24T10:36:36.181Z,8.99
2023-02-24T10:39:16.047Z,9.01
2023-02-24T10:41:57.573Z,9.15
2023-02-24T10:44:36.583Z,9.15
2023-02-24T10:47:14.295Z,9.21
2023-02-24T10:49:43.065Z,9.13
2023-02-24T10:52:29.409Z,9.18
2023-02-24T10:55:24.263Z,9.06
2023-02-24T10:58:05.980Z,9.27
2023-02-24T11:01:04.210Z,9.18
2023-02-24T11:03:41.777Z,9.35
2023-02-24T11:06:40.682Z,9.10
2023-02-24T11:09:19.730Z,9.05
2023-02-24T11:12:05.344Z,9.21
2023-02-24T11:14:58.101Z,9.12
2023-02-24T11:17:28.027Z,9.16
2023-02-24T11:19:58.494Z,9.11
2023-02-24T11:22:32.748Z,8.97
2023-02-24T11:25:05.940Z,9.21
2023-02-24T11:27:32.889Z,9.14
2023-02-24T11:30:22.804Z,9.08
2023-02-24T11:33:14.219Z,9.11
2023-02-24T11:35:46.926Z,9.09
2023-02-24T11:38:17.926Z,8.89
2023-02-24T11:40:48.658Z,9.03
2023-02-24T11:43:22.368Z,8.66
2023-02-24T11:46:09.672Z,8.96
2023-02-24T11:48:43.168Z,8.93
2023-02-24T11:51:23.661Z,8.89
2023-02-24T11:54:00.250Z,9.08
2023-02-24T11:56:28.157Z,9.01
2023-02-24T11:59:22.398Z,8.90
2023-02-24T12:02:17.090Z,8.85
2023-02-24T12:04:52.227Z,8.95
2023-02-24T12:07:28.490Z,9.29
2023-02-24T12:10:14.154Z,9.48
2023-02-24T12:13:02.089Z,9.39
2023-02-24T12:15:32.073Z,9.49
2023-02-24T12:18:24.267Z,9.75
2023-02-24T12:20:56.035Z,9.87
2023-02-24T12:23:29.649Z,9.66
2023-02-24T12:26:17.070Z,9.61
2023-02-24T12:29:08.232Z,10.01
2023-02-24T12:31:54.394Z,10.06
2023-02-24T12:34:35.576Z,9.87
2023-02-24T12:37:22.476Z,10.17
2023-02-24T12:39:57.158Z,10.13
2023-02-24T12:42:45.307Z,10.31
2023-02-24T12:45:34.031Z,10.10
2023-02-24T12:48:19.333Z,10.37
2023-02-24T12:50:53.010Z,10.55
2023-02-24T12:53:23.445Z,10.59
2023-02-24T12:56:09.437Z,10.65
2023-02-24T12:58:38.443Z,10.80
2023-02-24T13:01:24.732Z,11.06
2023-02-24T13:04:34.649Z,10.77
2023-02-24T13:07:37.153Z,10.50
2023-02-24T13:10:30.480Z,10.68
2023-02-24T13:13:06.469Z,10.73
2023-02-24T13:15:34.594Z,10.68
2023-02-24T13:18:01.361Z,10.40
2023-02-24T13:20:34.551Z,10.41
2023-02-24T13:23:04.934Z,10.37
2023-02-24T13:25:34.459Z,10.44
2023-02-24T13:28:06.460Z,10.20
2023-02-24T13:30:41.427Z,9.99
2023-02-24T13:33:17.096Z,10.00
2023-02-24T13:35:43.844Z,10.03
2023-02-24T13:38:23.946Z,10.15
2023-02-24T13:40:50.959Z,10.02
2023-02-24T13:43:27.469Z,9.94
2023-02-24T13:46:00.825Z,9.92
2023-02-24T13:48:47.931Z,9.87
2023-02-24T13:51:51.585Z,9.99
2023-02-24T13:54:39.461Z,9.83
2023-02-24T13:57:18.026Z,9.80
2023-02-24T13:59:57.722Z,9.74
2023-02-24T14:02:29.672Z,9.77
2023-02-24T14:04:58.523Z,9.79
2023-02-24T14:07:27.995Z,9.84
2023-02-24T14:09:58.130Z,9.70
2023-02-24T14:12:30.597Z,9.70
2023-02-24T14:14:57.864Z,9.63
2023-02-24T14:17:28.889Z,9.65
2023-02-24T14:20:08.017Z,9.68
2023-02-24T14:22:37.563Z,9.60
2023-02-24T14:25:05.475Z,9.77
2023-02-24T14:27:32.269Z,9.49
2023-02-24T14:29:58.870Z,9.59
2023-02-24T14:32:27.537Z,9.41
2023-02-24T14:34:54.480Z,9.47
2023-02-24T14:37:26.539Z,9.58
2023-02-24T14:40:00.804Z,9.61
2023-02-24T14:42:28.151Z,9.43
2023-02-24T14:44:57.560Z,9.45
2023-02-24T14:47:28.067Z,9.45
2023-02-24T14:49:59.421Z,9.42
2023-02-24T14:52:48.387Z,9.35
2023-02-24T14:55:21.482Z,9.25
2023-02-24T14:57:56.659Z,9.24
2023-02-24T15:00:53.716Z,9.14
2023-02-24T15:03:34.224Z,9.21
2023-02-24T15:06:06.296Z,9.12
2023-02-24T15:08:42.711Z,9.04
2023-02-24T15:11:21.683Z,9.01
2023-02-24T15:13:50.193Z,9.01
2023-02-24T15:16:24.307Z,9.01
2023-02-24T15:19:01.006Z,9.02
2023-02-24T15:21:47.194Z,8.92
2023-02-24T15:24:19.077Z,8.90
2023-02-24T15:27:14.151Z,8.94
2023-02-24T15:29:42.964Z,9.04
2023-02-24T15:32:30.853Z,9.05
2023-02-24T15:35:08.669Z,8.98
2023-02-24T15:37:42.024Z,8.93
2023-02-24T15:40:21.724Z,9.08
2023-02-24T15:43:09.398Z,8.99
2023-02-24T15:45:38.762Z,8.93
2023-02-24T15:48:20.377Z,8.88
2023-02-24T15:50:47.293Z,8.89
2023-02-24T15:53:14.212Z,8.84
2023-02-24T15:55:41.962Z,8.90
2023-02-24T15:58:17.501Z,8.89
2023-02-24T16:00:45.456Z,8.84
2023-02-24T16:03:12.592Z,8.88
2023-02-24T16:09:36.696Z,8.88
2023-02-24T16:15:17.067Z,8.76
2023-02-24T16:17:43.943Z,8.78
2023-02-24T16:20:27.559Z,8.81
2023-02-24T16:22:56.413Z,8.89
2023-02-24T16:25:23.781Z,8.79
2023-02-24T16:27:57.682Z,8.62
2023-02-24T16:30:30.744Z,8.60
2023-02-24T16:32:58.890Z,8.60
2023-02-24T16:35:26.980Z,8.51
2023-02-24T16:37:54.110Z,8.58
2023-02-24T16:40:30.970Z,8.56
2023-02-24T16:42:57.931Z,8.65
2023-02-24T16:45:29.019Z,8.55
2023-02-24T16:48:01.897Z,8.55
2023-02-24T16:50:34.288Z,8.44
2023-02-24T16:53:01.598Z,8.65
2023-02-24T16:55:28.257Z,8.64
2023-02-24T16:57:54.853Z,8.43
2023-02-24T17:03:01.059Z,8.37
2023-02-24T17:05:27.619Z,8.46
2023-02-24T17:07:55.553Z,8.43
2023-02-24T17:10:22.956Z,8.45
2023-02-24T17:12:49.460Z,8.31
2023-02-24T17:15:17.869Z,8.27
2023-02-24T17:17:44.457Z,8.32
2023-02-24T17:20:11.808Z,8.28
2023-02-24T17:22:38.530Z,8.27
2023-02-24T17:25:05.425Z,8.11
2023-02-24T17:27:32.044Z,8.17
2023-02-24T17:29:58.699Z,8.17
2023-02-24T17:32:25.456Z,8.13
2023-02-24T17:34:52.184Z,8.23
2023-02-24T17:37:18.753Z,8.17
2023-02-24T17:39:45.294Z,8.24
2023-02-24T17:42:11.850Z,8.25
2023-02-24T17:44:38.474Z,8.12
2023-02-24T17:47:06.464Z,8.16
2023-02-24T17:49:33.023Z,8.10
2023-02-24T17:51:59.728Z,8.16
2023-02-24T17:54:26.286Z,8.16
2023-02-24T17:56:52.811Z,8.17
2023-02-24T17:59:19.392Z,8.20
2023-02-24T18:01:45.916Z,8.13
2023-02-24T18:04:14.864Z,8.17
2023-02-24T18:06:42.448Z,8.21
2023-02-24T18:09:08.960Z,8.27
2023-02-24T18:11:38.600Z,8.18
2023-02-24T18:14:05.254Z,8.16
2023-02-24T18:16:31.956Z,8.13
2023-02-24T18:18:58.590Z,8.18
2023-02-24T18:21:25.168Z,8.17
2023-02-24T18:23:52.049Z,8.13
2023-02-24T18:26:18.621Z,8.07
2023-02-24T18:28:45.180Z,8.08
2023-02-24T18:31:16.017Z,8.13
2023-02-24T18:33:42.753Z,8.12
2023-02-24T18:36:09.628Z,8.12
2023-02-24T18:38:36.252Z,8.08
2023-02-24T18:41:12.879Z,7.99
2023-02-24T18:43:39.441Z,7.99
2023-02-24T18:46:06.990Z,8.07
2023-02-24T18:48:34.356Z,7.98
2023-02-24T18:51:01.658Z,7.88
2023-02-24T18:53:29.268Z,8.00
2023-02-24T18:56:02.332Z,7.97
2023-02-24T18:58:29.416Z,7.93
2023-02-24T19:00:55.929Z,7.85
2023-02-24T19:03:22.628Z,7.90
2023-02-24T19:05:49.199Z,7.81
2023-02-24T19:08:15.885Z,7.76
2023-02-24T19:10:43.749Z,7.79
2023-02-24T19:13:10.634Z,7.69
2023-02-24T19:15:38.006Z,7.78
2023-02-24T19:18:04.614Z,7.74
2023-02-24T19:20:31.412Z,7.84
2023-02-24T19:22:58.021Z,7.66
2023-02-24T19:25:24.562Z,7.64
2023-02-24T19:27:52.761Z,7.47
2023-02-24T19:30:19.338Z,7.52
2023-02-24T19:32:46.087Z,7.53
2023-02-24T19:35:13.704Z,7.58
2023-02-24T19:37:40.263Z,7.58
2023-02-24T19:40:07.067Z,7.55
2023-02-24T19:42:33.612Z,7.55
2023-02-24T19:45:00.179Z,7.39
2023-02-24T19:47:26.707Z,7.39
2023-02-24T19:49:56.029Z,7.42
2023-02-24T19:52:22.577Z,7.43
2023-02-24T19:54:49.119Z,7.49
2023-02-24T19:57:15.774Z,7.52
2023-02-24T19:59:44.738Z,7.44
2023-02-24T20:02:11.261Z,7.34
2023-02-24T20:04:37.831Z,7.50
2023-02-24T20:07:04.365Z,7.45
2023-02-24T20:09:32.294Z,7.40
2023-02-24T20:12:00.824Z,7.39
2023-02-24T20:14:28.389Z,7.41
2023-02-24T20:16:55.158Z,7.43
2023-02-24T20:19:21.783Z,7.41
2023-02-24T20:21:48.331Z,7.46
2023-02-24T20:24:15.884Z,7.47
2023-02-24T20:26:43.506Z,7.38
2023-02-24T20:29:11.526Z,7.38
2023-02-24T20:31:38.574Z,7.34
2023-02-24T20:34:05.376Z,7.44
2023-02-24T20:36:31.974Z,7.26
2023-02-24T20:38:59.083Z,7.31
2023-02-24T20:41:26.669Z,7.34
2023-02-24T20:43:53.363Z,7.27
2023-02-24T20:46:24.937Z,7.22
2023-02-24T20:48:52.397Z,7.21
2023-02-24T20:51:19.067Z,7.32
2023-02-24T20:53:56.670Z,7.19
2023-02-24T20:56:25.203Z,7.25
2023-02-24T20:58:52.809Z,7.24
2023-02-24T21:01:20.713Z,7.09
2023-02-24T21:03:47.397Z,6.57
2023-02-24T21:06:14.582Z,6.33
2023-02-24T21:08:41.124Z,6.27
2023-02-24T21:11:10.956Z,6.06
2023-02-24T21:13:41.615Z,5.94
2023-02-24T21:16:09.466Z,5.62
2023-02-24T21:18:36.475Z,5.37
2023-02-24T21:21:03.008Z,5.32
2023-02-24T21:23:29.632Z,5.25
2023-02-24T21:25:56.955Z,5.07
2023-02-24T21:28:23.532Z,5.02
2023-02-24T21:30:50.204Z,5.06
2023-02-24T21:33:17.207Z,4.96
2023-02-24T21:35:43.983Z,4.89
2023-02-24T21:38:10.805Z,4.75
2023-02-24T21:40:37.643Z,4.80
2023-02-24T21:43:04.356Z,4.85
2023-02-24T21:45:30.920Z,4.78
2023-02-24T21:47:58.123Z,4.67
2023-02-24T21:50:24.745Z,4.67
2023-02-24T21:52:51.372Z,4.68
2023-02-24T21:55:19.306Z,4.56
2023-02-24T21:57:45.888Z,4.52
2023-02-24T22:00:19.989Z,4.51
2023-02-24T22:02:47.348Z,4.37
2023-02-24T22:05:16.390Z,4.41
2023-02-24T22:07:44.252Z,4.61
2023-02-24T22:10:14.919Z,4.52
2023-02-24T22:12:41.603Z,4.31
2023-02-24T22:15:08.848Z,4.33
2023-02-24T22:17:36.303Z,4.47
2023-02-24T22:20:04.060Z,4.47
2023-02-24T22:22:30.640Z,4.39
2023-02-24T22:24:57.342Z,4.33
2023-02-24T22:27:25.501Z,4.33
2023-02-24T22:29:52.108Z,4.32
2023-02-24T22:32:18.806Z,4.34
2023-02-24T22:34:45.433Z,4.33
2023-02-24T22:37:11.998Z,4.48
2023-02-24T22:39:38.613Z,4.36
2023-02-24T22:42:05.246Z,4.32
2023-02-24T22:44:32.175Z,4.28
2023-02-24T22:46:58.777Z,4.33
2023-02-24T22:49:25.595Z,4.30
2023-02-24T22:51:52.195Z,4.36
2023-02-24T22:54:19.272Z,4.41
2023-02-24T22:56:45.941Z,4.35
2023-02-24T22:59:12.620Z,4.42
2023-02-24T23:01:39.351Z,4.32
2023-02-24T23:04:07.282Z,4.36
2023-02-24T23:06:34.349Z,4.30
2023-02-24T23:09:01.361Z,4.32
2023-02-24T23:11:29.536Z,4.34
2023-02-24T23:13:56.748Z,4.40
2023-02-24T23:16:25.374Z,4.23
2023-02-24T23:18:53.948Z,4.38
2023-02-24T23:21:25.041Z,4.25
2023-02-24T23:23:53.537Z,4.36
2023-02-24T23:26:20.547Z,4.37
2023-02-24T23:28:47.332Z,4.47
2023-02-24T23:31:17.740Z,4.53
2023-02-24T23:33:44.300Z,4.51
2023-02-24T23:36:10.938Z,4.49
2023-02-24T23:38:37.474Z,4.42
2023-02-24T23:41:07.337Z,4.51
2023-02-24T23:43:33.864Z,4.52
2023-02-24T23:46:03.440Z,4.53
2023-02-24T23:48:30.126Z,4.35
2023-02-24T23:50:57.427Z,4.38
2023-02-24T23:53:27.012Z,4.43
2023-02-24T23:55:53.598Z,4.33
2023-02-24T23:58:20.224Z,4.43
